createdAt,value
2018-12-07T00:00:42.986Z,1007.11
2018-12-07T00:01:42.928Z,1007.13
2018-12-07T00:02:42.955Z,1007.12
2018-12-07T00:03:42.866Z,1007.16
2018-12-07T00:04:42.807Z,1007.13
2018-12-07T00:05:42.910Z,1007.07
2018-12-07T00:06:42.833Z,1007.16
2018-12-07T00:07:42.792Z,1007.15
2018-12-07T00:08:42.797Z,1007.10
2018-12-07T00:09:42.773Z,1007.13
2018-12-07T00:10:42.784Z,1007.11
2018-12-07T00:11:42.801Z,1007.15
2018-12-07T00:12:42.761Z,1007.05
2018-12-07T00:13:42.758Z,1006.93
2018-12-07T00:14:42.820Z,1007.00
2018-12-07T00:15:42.758Z,1006.97
2018-12-07T00:16:51.867Z,1006.96
2018-12-07T00:17:57.800Z,1007.00
2018-12-07T00:18:43.597Z,1007.03
2018-12-07T00:19:47.928Z,1006.93
2018-12-07T00:20:43.901Z,1006.95
2018-12-07T00:21:42.628Z,1006.95
2018-12-07T00:22:42.676Z,1006.95
2018-12-07T00:23:43.378Z,1007.01
2018-12-07T00:24:51.881Z,1006.94
2018-12-07T00:25:42.579Z,1006.91
2018-12-07T00:26:42.575Z,1006.88
2018-12-07T00:27:42.558Z,1006.87
2018-12-07T00:28:42.581Z,1006.80
2018-12-07T00:29:42.543Z,1006.76
2018-12-07T00:30:42.528Z,1006.75
2018-12-07T00:31:42.521Z,1006.80
2018-12-07T00:32:42.509Z,1006.78
2018-12-07T00:33:42.494Z,1006.78
2018-12-07T00:34:42.504Z,1006.74
2018-12-07T00:35:42.953Z,1006.72
2018-12-07T00:36:42.461Z,1006.71
2018-12-07T00:37:42.455Z,1006.69
2018-12-07T00:38:42.437Z,1006.72
2018-12-07T00:39:42.437Z,1006.69
2018-12-07T00:40:42.413Z,1006.72
2018-12-07T00:41:42.424Z,1006.71
2018-12-07T00:42:42.391Z,1006.75
2018-12-07T00:43:42.390Z,1006.76
2018-12-07T00:44:42.387Z,1006.77
2018-12-07T00:45:42.399Z,1006.81
2018-12-07T00:46:42.364Z,1006.77
2018-12-07T00:47:42.356Z,1006.82
2018-12-07T00:48:42.350Z,1006.79
2018-12-07T00:49:42.332Z,1006.78
2018-12-07T00:50:42.328Z,1006.75
2018-12-07T00:51:42.312Z,1006.77
2018-12-07T00:52:42.290Z,1006.73
2018-12-07T00:53:42.283Z,1006.70
2018-12-07T00:54:42.279Z,1006.66
2018-12-07T00:55:42.270Z,1006.67
2018-12-07T00:56:42.257Z,1006.64
2018-12-07T00:57:42.260Z,1006.59
2018-12-07T00:58:42.227Z,1006.53
2018-12-07T00:59:42.214Z,1006.52
2018-12-07T01:00:42.212Z,1006.57
2018-12-07T01:01:42.201Z,1006.56
2018-12-07T01:02:42.197Z,1006.54
2018-12-07T01:03:42.191Z,1006.56
2018-12-07T01:04:42.166Z,1006.49
2018-12-07T01:05:42.160Z,1006.49
2018-12-07T01:06:42.151Z,1006.41
2018-12-07T01:07:42.147Z,1006.39
2018-12-07T01:08:42.163Z,1006.39
2018-12-07T01:09:42.106Z,1006.41
2018-12-07T01:10:42.107Z,1006.36
2018-12-07T01:11:42.091Z,1006.35
2018-12-07T01:12:42.087Z,1006.37
2018-12-07T01:13:42.072Z,1006.38
2018-12-07T01:14:42.098Z,1006.39
2018-12-07T01:15:42.058Z,1006.42
2018-12-07T01:16:42.049Z,1006.44
2018-12-07T01:17:42.021Z,1006.34
2018-12-07T01:18:42.020Z,1006.32
2018-12-07T01:19:42.006Z,1006.30
2018-12-07T01:20:42.015Z,1006.30
2018-12-07T01:21:41.973Z,1006.30
2018-12-07T01:22:41.973Z,1006.25
2018-12-07T01:23:41.959Z,1006.27
2018-12-07T01:24:41.956Z,1006.29
2018-12-07T01:25:41.971Z,1006.32
2018-12-07T01:26:41.941Z,1006.29
2018-12-07T01:27:41.967Z,1006.24
2018-12-07T01:28:41.898Z,1006.25
2018-12-07T01:29:41.901Z,1006.27
2018-12-07T01:30:41.886Z,1006.27
2018-12-07T01:31:41.878Z,1006.25
2018-12-07T01:32:41.859Z,1006.32
2018-12-07T01:33:41.898Z,1006.28
2018-12-07T01:34:41.838Z,1006.32
2018-12-07T01:35:41.828Z,1006.27
2018-12-07T01:36:41.822Z,1006.26
2018-12-07T01:37:41.820Z,1006.32
2018-12-07T01:38:41.806Z,1006.26
2018-12-07T01:39:41.799Z,1006.31
2018-12-07T01:40:41.782Z,1006.27
2018-12-07T01:41:41.769Z,1006.34
2018-12-07T01:42:41.761Z,1006.21
2018-12-07T01:43:41.738Z,1006.22
2018-12-07T01:44:41.741Z,1006.18
2018-12-07T01:45:41.730Z,1006.13
2018-12-07T01:46:41.721Z,1006.18
2018-12-07T01:47:41.714Z,1006.14
2018-12-07T01:48:41.703Z,1006.13
2018-12-07T01:49:41.696Z,1006.16
2018-12-07T01:50:41.679Z,1006.13
2018-12-07T01:51:41.683Z,1006.16
2018-12-07T01:52:41.643Z,1006.05
2018-12-07T01:53:41.638Z,1006.02
2018-12-07T01:54:41.638Z,1006.10
2018-12-07T01:55:41.623Z,1006.09
2018-12-07T01:56:41.645Z,1006.14
2018-12-07T01:57:41.598Z,1006.13
2018-12-07T01:58:41.600Z,1006.11
2018-12-07T01:59:41.589Z,1006.11
2018-12-07T02:00:41.576Z,1006.06
2018-12-07T02:01:41.548Z,1006.00
2018-12-07T02:02:41.546Z,1006.01
2018-12-07T02:03:41.530Z,1005.97
2018-12-07T02:04:41.561Z,1005.98
2018-12-07T02:05:41.517Z,1005.91
2018-12-07T02:06:41.491Z,1005.92
2018-12-07T02:07:41.524Z,1005.87
2018-12-07T02:08:41.488Z,1005.90
2018-12-07T02:09:41.475Z,1005.91
2018-12-07T02:10:41.460Z,1005.84
2018-12-07T02:11:41.440Z,1005.78
2018-12-07T02:12:41.450Z,1005.78
2018-12-07T02:13:41.448Z,1005.76
2018-12-07T02:14:41.416Z,1005.79
2018-12-07T02:15:41.411Z,1005.72
2018-12-07T02:16:41.393Z,1005.72
2018-12-07T02:17:41.385Z,1005.74
2018-12-07T02:18:41.376Z,1005.70
2018-12-07T02:19:41.389Z,1005.69
2018-12-07T02:20:41.347Z,1005.70
2018-12-07T02:21:41.337Z,1005.66
2018-12-07T02:22:41.330Z,1005.60
2018-12-07T02:23:41.323Z,1005.61
2018-12-07T02:24:41.340Z,1005.59
2018-12-07T02:25:41.303Z,1005.62
2018-12-07T02:26:41.292Z,1005.63
2018-12-07T02:27:41.294Z,1005.63
2018-12-07T02:28:41.266Z,1005.63
2018-12-07T02:29:41.271Z,1005.61
2018-12-07T02:30:41.247Z,1005.63
2018-12-07T02:31:41.242Z,1005.57
2018-12-07T02:32:41.244Z,1005.66
2018-12-07T02:33:41.207Z,1005.57
2018-12-07T02:34:41.232Z,1005.59
2018-12-07T02:35:41.193Z,1005.59
2018-12-07T02:36:41.198Z,1005.58
2018-12-07T02:37:41.164Z,1005.52
2018-12-07T02:38:41.150Z,1005.58
2018-12-07T02:39:41.143Z,1005.52
2018-12-07T02:40:41.190Z,1005.51
2018-12-07T02:41:41.134Z,1005.51
2018-12-07T02:42:41.134Z,1005.49
2018-12-07T02:43:41.114Z,1005.44
2018-12-07T02:44:41.099Z,1005.41
2018-12-07T02:45:41.088Z,1005.42
2018-12-07T02:46:41.119Z,1005.44
2018-12-07T02:47:41.069Z,1005.44
2018-12-07T02:48:41.060Z,1005.40
2018-12-07T02:49:41.048Z,1005.42
2018-12-07T02:50:41.033Z,1005.40
2018-12-07T02:51:41.018Z,1005.32
2018-12-07T02:52:41.053Z,1005.34
2018-12-07T02:53:41.009Z,1005.33
2018-12-07T02:54:40.998Z,1005.34
2018-12-07T02:55:40.967Z,1005.29
2018-12-07T02:56:40.971Z,1005.29
2018-12-07T02:57:40.957Z,1005.26
2018-12-07T02:58:40.991Z,1005.29
2018-12-07T02:59:40.934Z,1005.25
2018-12-07T03:00:40.926Z,1005.17
2018-12-07T03:01:40.923Z,1005.12
2018-12-07T03:02:40.898Z,1005.10
2018-12-07T03:03:40.897Z,1005.07
2018-12-07T03:04:40.897Z,1005.08
2018-12-07T03:05:40.883Z,1005.09
2018-12-07T03:06:40.867Z,1005.07
2018-12-07T03:07:40.857Z,1005.10
2018-12-07T03:08:40.852Z,1005.08
2018-12-07T03:09:40.841Z,1005.05
2018-12-07T03:10:40.823Z,1005.06
2018-12-07T03:11:40.807Z,1005.09
2018-12-07T03:12:40.810Z,1004.95
2018-12-07T03:13:40.788Z,1004.97
2018-12-07T03:14:40.809Z,1004.99
2018-12-07T03:15:40.757Z,1004.98
2018-12-07T03:16:40.760Z,1004.96
2018-12-07T03:17:40.749Z,1004.92
2018-12-07T03:18:40.737Z,1004.92
2018-12-07T03:19:40.729Z,1004.86
2018-12-07T03:20:40.740Z,1004.87
2018-12-07T03:21:40.709Z,1004.89
2018-12-07T03:22:40.689Z,1004.87
2018-12-07T03:23:40.676Z,1004.88
2018-12-07T03:24:40.675Z,1004.86
2018-12-07T03:25:40.671Z,1004.90
2018-12-07T03:26:40.659Z,1004.91
2018-12-07T03:27:40.648Z,1004.86
2018-12-07T03:28:40.630Z,1004.87
2018-12-07T03:29:40.617Z,1004.88
2018-12-07T03:30:40.623Z,1004.90
2018-12-07T03:31:40.595Z,1004.82
2018-12-07T03:32:40.580Z,1004.79
2018-12-07T03:33:40.587Z,1004.80
2018-12-07T03:34:40.566Z,1004.78
2018-12-07T03:35:40.587Z,1004.77
2018-12-07T03:36:40.537Z,1004.74
2018-12-07T03:37:40.524Z,1004.77
2018-12-07T03:38:40.521Z,1004.77
2018-12-07T03:39:40.515Z,1004.73
2018-12-07T03:40:40.492Z,1004.71
2018-12-07T03:41:40.526Z,1004.75
2018-12-07T03:42:40.472Z,1004.73
2018-12-07T03:43:40.492Z,1004.74
2018-12-07T03:44:40.467Z,1004.69
2018-12-07T03:45:40.453Z,1004.69
2018-12-07T03:46:40.427Z,1004.73
2018-12-07T03:47:40.432Z,1004.75
2018-12-07T03:48:40.420Z,1004.72
2018-12-07T03:49:40.396Z,1004.70
2018-12-07T03:50:40.397Z,1004.69
2018-12-07T03:51:40.377Z,1004.70
2018-12-07T03:52:40.402Z,1004.65
2018-12-07T03:53:40.370Z,1004.65
2018-12-07T03:54:40.358Z,1004.67
2018-12-07T03:55:40.333Z,1004.65
2018-12-07T03:56:40.336Z,1004.64
2018-12-07T03:57:40.317Z,1004.63
2018-12-07T03:58:40.332Z,1004.62
2018-12-07T03:59:40.296Z,1004.57
2018-12-07T04:00:40.322Z,1004.62
2018-12-07T04:01:40.278Z,1004.61
2018-12-07T04:02:40.261Z,1004.59
2018-12-07T04:03:41.784Z,1004.55
2018-12-07T04:04:40.240Z,1004.54
2018-12-07T04:05:40.224Z,1004.50
2018-12-07T04:06:40.231Z,1004.51
2018-12-07T04:07:40.232Z,1004.56
2018-12-07T04:08:40.202Z,1004.55
2018-12-07T04:09:40.228Z,1004.51
2018-12-07T04:10:40.189Z,1004.55
2018-12-07T04:11:40.160Z,1004.51
2018-12-07T04:12:40.154Z,1004.49
2018-12-07T04:13:40.158Z,1004.48
2018-12-07T04:14:40.128Z,1004.44
2018-12-07T04:15:40.137Z,1004.44
2018-12-07T04:16:40.123Z,1004.45
2018-12-07T04:17:40.101Z,1004.45
2018-12-07T04:18:40.089Z,1004.46
2018-12-07T04:19:40.079Z,1004.48
2018-12-07T04:20:40.110Z,1004.47
2018-12-07T04:21:40.059Z,1004.44
2018-12-07T04:22:40.056Z,1004.43
2018-12-07T04:23:40.053Z,1004.43
2018-12-07T04:24:40.034Z,1004.45
2018-12-07T04:25:40.017Z,1004.45
2018-12-07T04:26:40.033Z,1004.44
2018-12-07T04:27:39.997Z,1004.48
2018-12-07T04:28:39.981Z,1004.43
2018-12-07T04:29:39.989Z,1004.45
2018-12-07T04:30:39.970Z,1004.46
2018-12-07T04:31:39.996Z,1004.49
2018-12-07T04:32:39.944Z,1004.49
2018-12-07T04:33:39.939Z,1004.44
2018-12-07T04:34:39.934Z,1004.43
2018-12-07T04:35:39.908Z,1004.45
2018-12-07T04:36:39.901Z,1004.41
2018-12-07T04:37:39.902Z,1004.42
2018-12-07T04:38:39.882Z,1004.46
2018-12-07T04:39:39.865Z,1004.48
2018-12-07T04:40:39.864Z,1004.51
2018-12-07T04:41:39.842Z,1004.50
2018-12-07T04:42:39.852Z,1004.49
2018-12-07T04:43:39.838Z,1004.50
2018-12-07T04:44:39.820Z,1004.43
2018-12-07T04:45:39.799Z,1004.45
2018-12-07T04:46:39.802Z,1004.45
2018-12-07T04:47:39.807Z,1004.39
2018-12-07T04:48:39.780Z,1004.38
2018-12-07T04:49:39.773Z,1004.38
2018-12-07T04:50:39.786Z,1004.40
2018-12-07T04:51:39.759Z,1004.42
2018-12-07T04:52:39.728Z,1004.40
2018-12-07T04:53:39.730Z,1004.37
2018-12-07T04:54:39.721Z,1004.39
2018-12-07T04:55:39.704Z,1004.36
2018-12-07T04:56:39.690Z,1004.39
2018-12-07T04:57:39.680Z,1004.33
2018-12-07T04:58:39.694Z,1004.33
2018-12-07T04:59:39.656Z,1004.30
2018-12-07T05:00:39.673Z,1004.28
2018-12-07T05:01:39.641Z,1004.28
2018-12-07T05:02:39.637Z,1004.24
2018-12-07T05:03:39.609Z,1004.23
2018-12-07T05:04:39.620Z,1004.24
2018-12-07T05:05:39.620Z,1004.24
2018-12-07T05:06:39.583Z,1004.23
2018-12-07T05:07:39.589Z,1004.21
2018-12-07T05:08:39.568Z,1004.21
2018-12-07T05:09:39.558Z,1004.22
2018-12-07T05:10:39.543Z,1004.25
2018-12-07T05:11:39.556Z,1004.22
2018-12-07T05:12:39.525Z,1004.19
2018-12-07T05:13:39.508Z,1004.22
2018-12-07T05:14:39.498Z,1004.18
2018-12-07T05:15:39.521Z,1004.22
2018-12-07T05:16:39.475Z,1004.26
2018-12-07T05:17:39.493Z,1004.24
2018-12-07T05:18:39.453Z,1004.23
2018-12-07T05:19:39.443Z,1004.21
2018-12-07T05:20:39.431Z,1004.15
2018-12-07T05:21:39.442Z,1004.21
2018-12-07T05:22:39.449Z,1004.16
2018-12-07T05:23:39.419Z,1004.21
2018-12-07T05:24:39.388Z,1004.24
2018-12-07T05:25:39.394Z,1004.25
2018-12-07T05:26:39.389Z,1004.22
2018-12-07T05:27:39.360Z,1004.23
2018-12-07T05:28:39.356Z,1004.24
2018-12-07T05:29:39.338Z,1004.24
2018-12-07T05:30:39.332Z,1004.20
2018-12-07T05:31:39.316Z,1004.18
2018-12-07T05:32:39.313Z,1004.20
2018-12-07T05:33:39.308Z,1004.19
2018-12-07T05:34:39.285Z,1004.17
2018-12-07T05:35:39.280Z,1004.20
2018-12-07T05:36:39.275Z,1004.14
2018-12-07T05:37:39.326Z,1004.14
2018-12-07T05:38:39.252Z,1004.18
2018-12-07T05:39:39.268Z,1004.16
2018-12-07T05:40:39.249Z,1004.19
2018-12-07T05:41:39.210Z,1004.12
2018-12-07T05:42:39.222Z,1004.09
2018-12-07T05:43:39.854Z,1004.07
2018-12-07T05:44:39.204Z,1004.10
2018-12-07T05:45:40.703Z,1004.09
2018-12-07T05:46:40.465Z,1004.10
2018-12-07T05:47:39.165Z,1004.12
2018-12-07T05:48:39.197Z,1004.15
2018-12-07T05:49:39.121Z,1004.14
2018-12-07T05:50:39.133Z,1004.17
2018-12-07T05:51:39.953Z,1004.17
2018-12-07T05:52:39.105Z,1004.17
2018-12-07T05:53:39.087Z,1004.19
2018-12-07T05:54:39.094Z,1004.13
2018-12-07T05:55:39.057Z,1004.15
2018-12-07T05:56:39.057Z,1004.10
2018-12-07T05:57:39.086Z,1003.98
2018-12-07T05:58:39.024Z,1004.04
2018-12-07T05:59:44.486Z,1004.10
2018-12-07T06:00:39.881Z,1004.11
2018-12-07T06:01:40.385Z,1004.06
2018-12-07T06:02:40.891Z,1004.11
2018-12-07T06:03:41.202Z,1004.05
2018-12-07T06:04:38.998Z,1004.10
2018-12-07T06:05:39.031Z,1004.05
2018-12-07T06:06:38.950Z,1004.03
2018-12-07T06:07:38.966Z,1004.01
2018-12-07T06:08:39.069Z,1004.01
2018-12-07T06:09:38.959Z,1004.09
2018-12-07T06:10:38.949Z,1004.04
2018-12-07T06:11:38.910Z,1004.04
2018-12-07T06:12:38.912Z,1004.03
2018-12-07T06:13:38.911Z,1004.01
2018-12-07T06:14:39.036Z,1003.99
2018-12-07T06:15:39.508Z,1003.96
2018-12-07T06:16:39.016Z,1004.00
2018-12-07T06:17:40.749Z,1004.01
2018-12-07T06:18:39.052Z,1003.99
2018-12-07T06:19:39.030Z,1003.97
2018-12-07T06:20:39.721Z,1003.97
2018-12-07T06:21:39.194Z,1004.02
2018-12-07T06:22:40.393Z,1003.99
2018-12-07T06:23:39.069Z,1003.93
2018-12-07T06:24:39.089Z,1003.98
2018-12-07T06:25:38.842Z,1003.97
2018-12-07T06:26:38.727Z,1003.91
2018-12-07T06:27:38.798Z,1003.92
2018-12-07T06:28:38.802Z,1003.90
2018-12-07T06:29:38.711Z,1003.93
2018-12-07T06:30:38.710Z,1003.89
2018-12-07T06:31:38.772Z,1003.90
2018-12-07T06:32:38.689Z,1003.88
2018-12-07T06:33:38.678Z,1003.93
2018-12-07T06:34:38.652Z,1003.87
2018-12-07T06:35:39.031Z,1003.86
2018-12-07T06:36:38.634Z,1003.84
2018-12-07T06:37:38.615Z,1003.86
2018-12-07T06:38:38.619Z,1003.84
2018-12-07T06:39:38.618Z,1003.83
2018-12-07T06:40:38.592Z,1003.84
2018-12-07T06:41:38.577Z,1003.81
2018-12-07T06:42:38.567Z,1003.87
2018-12-07T06:43:38.556Z,1003.77
2018-12-07T06:44:38.563Z,1003.78
2018-12-07T06:45:38.531Z,1003.78
2018-12-07T06:46:38.528Z,1003.77
2018-12-07T06:47:38.512Z,1003.78
2018-12-07T06:48:38.500Z,1003.77
2018-12-07T06:49:38.502Z,1003.81
2018-12-07T06:50:38.472Z,1003.78
2018-12-07T06:51:38.506Z,1003.77
2018-12-07T06:52:38.458Z,1003.77
2018-12-07T06:53:38.450Z,1003.77
2018-12-07T06:54:38.447Z,1003.76
2018-12-07T06:55:38.435Z,1003.74
2018-12-07T06:56:38.409Z,1003.70
2018-12-07T06:57:38.418Z,1003.70
2018-12-07T06:58:38.396Z,1003.68
2018-12-07T06:59:38.396Z,1003.64
2018-12-07T07:00:38.388Z,1003.64
2018-12-07T07:01:38.373Z,1003.66
2018-12-07T07:02:38.396Z,1003.62
2018-12-07T07:03:38.333Z,1003.65
2018-12-07T07:04:38.349Z,1003.71
2018-12-07T07:05:38.349Z,1003.59
2018-12-07T07:06:38.323Z,1003.65
2018-12-07T07:07:38.298Z,1003.64
2018-12-07T07:08:38.306Z,1003.64
2018-12-07T07:09:38.294Z,1003.68
2018-12-07T07:10:38.271Z,1003.62
2018-12-07T07:11:38.277Z,1003.67
2018-12-07T07:12:38.252Z,1003.66
2018-12-07T07:13:38.260Z,1003.67
2018-12-07T07:14:38.261Z,1003.69
2018-12-07T07:15:38.216Z,1003.72
2018-12-07T07:16:38.212Z,1003.69
2018-12-07T07:17:38.199Z,1003.69
2018-12-07T07:18:38.188Z,1003.72
2018-12-07T07:19:38.191Z,1003.72
2018-12-07T07:20:38.201Z,1003.66
2018-12-07T07:21:38.160Z,1003.68
2018-12-07T07:22:38.184Z,1003.71
2018-12-07T07:23:38.136Z,1003.73
2018-12-07T07:24:38.160Z,1003.70
2018-12-07T07:25:38.134Z,1003.76
2018-12-07T07:26:38.125Z,1003.73
2018-12-07T07:27:38.097Z,1003.75
2018-12-07T07:28:38.102Z,1003.74
2018-12-07T07:29:38.105Z,1003.75
2018-12-07T07:30:38.079Z,1003.78
2018-12-07T07:31:43.347Z,1003.71
2018-12-07T07:32:39.046Z,1003.72
2018-12-07T07:33:38.033Z,1003.71
2018-12-07T07:34:38.042Z,1003.70
2018-12-07T07:35:38.006Z,1003.68
2018-12-07T07:36:38.004Z,1003.71
2018-12-07T07:37:37.983Z,1003.64
2018-12-07T07:38:37.974Z,1003.69
2018-12-07T07:39:37.992Z,1003.73
2018-12-07T07:40:37.982Z,1003.69
2018-12-07T07:41:37.941Z,1003.66
2018-12-07T07:42:37.935Z,1003.64
2018-12-07T07:43:37.969Z,1003.62
2018-12-07T07:44:37.924Z,1003.63
2018-12-07T07:45:37.898Z,1003.62
2018-12-07T07:46:37.898Z,1003.59
2018-12-07T07:47:37.886Z,1003.56
2018-12-07T07:48:37.876Z,1003.58
2018-12-07T07:49:37.884Z,1003.55
2018-12-07T07:50:37.853Z,1003.57
2018-12-07T07:51:37.866Z,1003.52
2018-12-07T07:52:37.923Z,1003.52
2018-12-07T07:53:37.827Z,1003.56
2018-12-07T07:54:37.825Z,1003.50
2018-12-07T07:55:37.823Z,1003.46
2018-12-07T07:56:37.880Z,1003.47
2018-12-07T07:57:37.797Z,1003.42
2018-12-07T07:58:37.842Z,1003.40
2018-12-07T07:59:37.839Z,1003.40
2018-12-07T08:00:37.870Z,1003.39
2018-12-07T08:01:37.830Z,1003.39
2018-12-07T08:02:37.861Z,1003.38
2018-12-07T08:03:37.873Z,1003.35
2018-12-07T08:04:38.474Z,1003.30
2018-12-07T08:05:38.473Z,1003.31
2018-12-07T08:06:37.875Z,1003.26
2018-12-07T08:07:37.701Z,1003.21
2018-12-07T08:08:37.658Z,1003.23
2018-12-07T08:09:37.851Z,1003.23
2018-12-07T08:10:38.447Z,1003.21
2018-12-07T08:11:37.746Z,1003.19
2018-12-07T08:12:38.400Z,1003.24
2018-12-07T08:13:37.618Z,1003.20
2018-12-07T08:14:37.605Z,1003.15
2018-12-07T08:15:37.578Z,1003.16
2018-12-07T08:16:37.619Z,1003.20
2018-12-07T08:17:37.554Z,1003.19
2018-12-07T08:18:37.546Z,1003.15
2018-12-07T08:19:37.557Z,1003.15
2018-12-07T08:20:37.532Z,1003.09
2018-12-07T08:21:37.534Z,1003.14
2018-12-07T08:22:37.519Z,1003.07
2018-12-07T08:23:37.518Z,1003.09
2018-12-07T08:24:37.503Z,1003.06
2018-12-07T08:25:37.469Z,1003.10
2018-12-07T08:26:37.486Z,1003.14
2018-12-07T08:27:37.460Z,1003.08
2018-12-07T08:28:37.453Z,1003.04
2018-12-07T08:29:37.475Z,1003.03
2018-12-07T08:30:37.445Z,1003.00
2018-12-07T08:31:37.417Z,1003.02
2018-12-07T08:32:37.406Z,1003.03
2018-12-07T08:33:37.397Z,1003.04
2018-12-07T08:34:37.430Z,1003.03
2018-12-07T08:35:37.365Z,1002.99
2018-12-07T08:36:37.359Z,1003.04
2018-12-07T08:37:37.367Z,1003.04
2018-12-07T08:38:37.362Z,1003.06
2018-12-07T08:39:37.336Z,1003.08
2018-12-07T08:40:37.371Z,1003.06
2018-12-07T08:41:37.310Z,1003.04
2018-12-07T08:42:37.307Z,1003.02
2018-12-07T08:43:37.285Z,1003.05
2018-12-07T08:44:37.299Z,1002.98
2018-12-07T08:45:37.268Z,1002.97
2018-12-07T08:46:37.272Z,1002.95
2018-12-07T08:47:37.246Z,1002.93
2018-12-07T08:48:37.245Z,1002.93
2018-12-07T08:49:37.265Z,1002.92
2018-12-07T08:50:37.211Z,1002.91
2018-12-07T08:51:37.207Z,1002.91
2018-12-07T08:52:37.201Z,1002.92
2018-12-07T08:53:37.176Z,1002.90
2018-12-07T08:54:37.170Z,1002.90
2018-12-07T08:55:37.184Z,1002.86
2018-12-07T08:56:37.190Z,1002.87
2018-12-07T08:57:37.156Z,1002.88
2018-12-07T08:58:37.147Z,1002.92
2018-12-07T08:59:37.113Z,1002.90
2018-12-07T09:00:37.203Z,1002.87
2018-12-07T09:01:38.075Z,1002.85
2018-12-07T09:02:37.077Z,1002.88
2018-12-07T09:03:37.076Z,1002.84
2018-12-07T09:04:37.068Z,1002.87
2018-12-07T09:05:37.051Z,1002.85
2018-12-07T09:06:37.100Z,1002.85
2018-12-07T09:07:37.040Z,1002.82
2018-12-07T09:08:37.033Z,1002.82
2018-12-07T09:09:37.028Z,1002.87
2018-12-07T09:10:37.017Z,1002.87
2018-12-07T09:11:37.004Z,1002.81
2018-12-07T09:12:37.004Z,1002.84
2018-12-07T09:13:36.983Z,1002.81
2018-12-07T09:14:36.977Z,1002.83
2018-12-07T09:15:36.967Z,1002.77
2018-12-07T09:16:36.948Z,1002.74
2018-12-07T09:17:36.950Z,1002.74
2018-12-07T09:18:36.923Z,1002.70
2018-12-07T09:19:36.929Z,1002.69
2018-12-07T09:20:36.922Z,1002.70
2018-12-07T09:21:36.909Z,1002.69
2018-12-07T09:22:36.953Z,1002.67
2018-12-07T09:23:36.876Z,1002.64
2018-12-07T09:24:36.855Z,1002.62
2018-12-07T09:25:36.848Z,1002.62
2018-12-07T09:26:36.836Z,1002.57
2018-12-07T09:27:36.823Z,1002.53
2018-12-07T09:28:36.850Z,1002.53
2018-12-07T09:29:36.799Z,1002.50
2018-12-07T09:30:36.798Z,1002.50
2018-12-07T09:31:36.796Z,1002.49
2018-12-07T09:32:36.779Z,1002.52
2018-12-07T09:33:36.791Z,1002.48
2018-12-07T09:34:36.767Z,1002.47
2018-12-07T09:35:36.743Z,1002.47
2018-12-07T09:36:36.753Z,1002.43
2018-12-07T09:37:36.768Z,1002.44
2018-12-07T09:38:36.737Z,1002.46
2018-12-07T09:39:36.732Z,1002.44
2018-12-07T09:40:36.694Z,1002.42
2018-12-07T09:41:36.699Z,1002.40
2018-12-07T09:42:36.680Z,1002.39
2018-12-07T09:43:36.663Z,1002.33
2018-12-07T09:44:36.676Z,1002.32
2018-12-07T09:45:36.652Z,1002.32
2018-12-07T09:46:36.634Z,1002.34
2018-12-07T09:47:36.637Z,1002.28
2018-12-07T09:48:36.629Z,1002.33
2018-12-07T09:49:36.634Z,1002.27
2018-12-07T09:50:36.624Z,1002.25
2018-12-07T09:51:36.595Z,1002.25
2018-12-07T09:52:36.560Z,1002.24
2018-12-07T09:53:36.559Z,1002.19
2018-12-07T09:54:36.537Z,1002.19
2018-12-07T09:55:36.537Z,1002.18
2018-12-07T09:56:36.535Z,1002.18
2018-12-07T09:57:36.532Z,1002.15
2018-12-07T09:58:36.514Z,1002.13
2018-12-07T09:59:36.490Z,1002.16
2018-12-07T10:00:36.498Z,1002.16
2018-12-07T10:01:36.524Z,1002.09
2018-12-07T10:02:36.483Z,1002.13
2018-12-07T10:03:36.438Z,1002.08
2018-12-07T10:04:36.427Z,1002.07
2018-12-07T10:05:36.431Z,1001.99
2018-12-07T10:06:36.414Z,1001.99
2018-12-07T10:07:36.434Z,1001.97
2018-12-07T10:08:36.395Z,1001.95
2018-12-07T10:09:36.428Z,1001.90
2018-12-07T10:10:36.378Z,1001.88
2018-12-07T10:11:36.365Z,1001.80
2018-12-07T10:12:36.395Z,1001.83
2018-12-07T10:13:36.472Z,1001.80
2018-12-07T10:14:36.356Z,1001.80
2018-12-07T10:15:36.346Z,1001.76
2018-12-07T10:16:36.337Z,1001.76
2018-12-07T10:17:36.358Z,1001.70
2018-12-07T10:18:36.302Z,1001.68
2018-12-07T10:19:36.373Z,1001.67
2018-12-07T10:20:36.272Z,1001.64
2018-12-07T10:21:36.279Z,1001.62
2018-12-07T10:22:37.832Z,1001.59
2018-12-07T10:23:36.236Z,1001.58
2018-12-07T10:24:36.233Z,1001.61
2018-12-07T10:25:36.252Z,1001.57
2018-12-07T10:26:36.217Z,1001.50
2018-12-07T10:27:36.217Z,1001.53
2018-12-07T10:28:36.190Z,1001.57
2018-12-07T10:29:36.162Z,1001.52
2018-12-07T10:30:36.177Z,1001.46
2018-12-07T10:31:36.157Z,1001.48
2018-12-07T10:32:36.136Z,1001.48
2018-12-07T10:33:36.128Z,1001.46
2018-12-07T10:34:36.112Z,1001.44
2018-12-07T10:35:36.128Z,1001.46
2018-12-07T10:36:36.133Z,1001.43
2018-12-07T10:37:36.093Z,1001.44
2018-12-07T10:38:36.080Z,1001.38
2018-12-07T10:39:36.068Z,1001.34
2018-12-07T10:40:36.094Z,1001.34
2018-12-07T10:41:36.047Z,1001.32
2018-12-07T10:42:36.069Z,1001.36
2018-12-07T10:43:36.035Z,1001.26
2018-12-07T10:44:36.018Z,1001.33
2018-12-07T10:45:35.998Z,1001.25
2018-12-07T10:46:35.977Z,1001.21
2018-12-07T10:47:35.977Z,1001.20
2018-12-07T10:48:35.998Z,1001.17
2018-12-07T10:49:35.967Z,1001.17
2018-12-07T10:50:35.940Z,1001.17
2018-12-07T10:51:35.939Z,1001.14
2018-12-07T10:52:35.933Z,1001.11
2018-12-07T10:53:35.918Z,1001.10
2018-12-07T10:54:35.900Z,1001.09
2018-12-07T10:55:35.902Z,1001.07
2018-12-07T10:56:35.909Z,1001.09
2018-12-07T10:57:35.870Z,1001.05
2018-12-07T10:58:35.906Z,1001.03
2018-12-07T10:59:35.863Z,1001.02
2018-12-07T11:00:35.884Z,1001.00
2018-12-07T11:01:35.835Z,1000.93
2018-12-07T11:02:35.829Z,1000.98
2018-12-07T11:03:35.810Z,1000.94
2018-12-07T11:04:35.826Z,1000.92
2018-12-07T11:05:35.798Z,1000.91
2018-12-07T11:06:35.765Z,1000.90
2018-12-07T11:07:35.758Z,1000.87
2018-12-07T11:08:35.777Z,1000.87
2018-12-07T11:09:35.742Z,1000.82
2018-12-07T11:10:35.740Z,1000.81
2018-12-07T11:11:35.725Z,1000.75
2018-12-07T11:12:35.745Z,1000.75
2018-12-07T11:13:35.685Z,1000.74
2018-12-07T11:14:35.710Z,1000.75
2018-12-07T11:15:35.688Z,1000.69
2018-12-07T11:16:35.676Z,1000.74
2018-12-07T11:17:35.672Z,1000.73
2018-12-07T11:18:35.663Z,1000.72
2018-12-07T11:19:35.631Z,1000.69
2018-12-07T11:20:35.655Z,1000.66
2018-12-07T11:21:35.618Z,1000.59
2018-12-07T11:22:35.647Z,1000.64
2018-12-07T11:23:35.668Z,1000.61
2018-12-07T11:24:35.633Z,1000.58
2018-12-07T11:25:35.605Z,1000.56
2018-12-07T11:26:35.563Z,1000.58
2018-12-07T11:27:35.546Z,1000.54
2018-12-07T11:28:35.537Z,1000.49
2018-12-07T11:29:35.522Z,1000.49
2018-12-07T11:30:35.562Z,1000.47
2018-12-07T11:31:35.501Z,1000.51
2018-12-07T11:32:35.482Z,1000.42
2018-12-07T11:33:35.485Z,1000.41
2018-12-07T11:34:35.478Z,1000.40
2018-12-07T11:35:35.459Z,1000.40
2018-12-07T11:36:35.492Z,1000.38
2018-12-07T11:37:35.438Z,1000.37
2018-12-07T11:38:35.438Z,1000.37
2018-12-07T11:39:35.421Z,1000.34
2018-12-07T11:40:35.410Z,1000.32
2018-12-07T11:41:35.401Z,1000.34
2018-12-07T11:42:35.432Z,1000.31
2018-12-07T11:43:35.368Z,1000.27
2018-12-07T11:44:36.610Z,1000.27
2018-12-07T11:45:35.355Z,1000.21
2018-12-07T11:46:35.347Z,1000.22
2018-12-07T11:47:35.337Z,1000.19
2018-12-07T11:48:35.360Z,1000.30
2018-12-07T11:49:35.307Z,1000.27
2018-12-07T11:50:35.303Z,1000.24
2018-12-07T11:51:35.306Z,1000.22
2018-12-07T11:52:35.303Z,1000.22
2018-12-07T11:53:35.272Z,1000.17
2018-12-07T11:54:35.290Z,1000.14
2018-12-07T11:55:35.261Z,1000.11
2018-12-07T11:56:35.238Z,1000.11
2018-12-07T11:57:35.245Z,1000.08
2018-12-07T11:58:35.223Z,1000.08
2018-12-07T11:59:35.211Z,1000.12
2018-12-07T12:00:35.207Z,1000.12
2018-12-07T12:01:35.196Z,1000.12
2018-12-07T12:02:35.175Z,1000.10
2018-12-07T12:03:35.156Z,1000.11
2018-12-07T12:04:35.151Z,1000.11
2018-12-07T12:05:35.140Z,1000.01